Time;durP1;ratioP1;P1;durP2;ratioP2;P2;SDS_P1;SDS_P2;PMS_P1;PMS_P2;Temp;Humidity;BMP_temperature;BMP_pressure;BME280_temperature;BME280_humidity;BME280_pressure;Samples;Min_cycle;Max_cycle;Signal;HPM_P1;HPM_P2
2022/08/09 00:00:47;;;;;;;2.50;1.77;;;;;;;23.85;100.00;61586.06;5003833;28;20022;-78
2022/08/09 00:03:13;;;;;;;10.15;1.60;;;;;;;23.85;100.00;61586.06;5003987;28;20030;-78
2022/08/09 00:05:38;;;;;;;3.40;1.80;;;;;;;23.85;100.00;61586.06;5002710;28;20030;-78
2022/08/09 00:08:06;;;;;;;3.05;1.88;;;;;;;23.85;100.00;61586.06;5014201;28;20065;-78
2022/08/09 00:10:31;;;;;;;5.50;1.92;;;;;;;26.45;100.00;61586.06;5013738;28;20038;-78
2022/08/09 00:12:57;;;;;;;2.60;2.40;;;;;;;22.87;100.00;61586.06;5013073;28;20030;-78
2022/08/09 00:15:23;;;;;;;2.55;2.17;;;;;;;23.85;100.00;61586.06;5013434;28;20038;-78
2022/08/09 00:17:48;;;;;;;2.40;2.17;;;;;;;22.56;100.00;61586.06;5013972;28;20045;-77
2022/08/09 00:20:14;;;;;;;2.60;2.40;;;;;;;22.52;100.00;61586.06;5013704;28;20026;-77
2022/08/09 00:22:39;;;;;;;2.50;2.30;;;;;;;22.48;100.00;61586.06;5012770;28;20044;-78
2022/08/09 00:25:06;;;;;;;2.50;2.30;;;;;;;104.25;100.00;61586.06;5013058;28;20076;-77
2022/08/09 00:27:31;;;;;;;3.63;3.10;;;;;;;187.31;100.00;61586.06;5013618;28;20026;-77
2022/08/09 00:29:57;;;;;;;3.10;2.40;;;;;;;-144.47;100.00;61586.06;5014035;28;20034;-78
2022/08/09 00:32:23;;;;;;;4.10;2.70;;;;;;;-144.47;100.00;61586.06;5012403;28;20030;-76
2022/08/09 00:34:48;;;;;;;3.72;2.47;;;;;;;-144.47;100.00;61586.06;5013566;28;20037;-77
2022/08/09 00:37:14;;;;;;;4.75;2.47;;;;;;;31.63;100.00;61586.06;5013635;28;20030;-78
2022/08/09 00:39:39;;;;;;;4.32;2.72;;;;;;;104.25;100.00;61586.06;5013690;28;20110;-78
2022/08/09 00:42:06;;;;;;;3.05;2.60;;;;;;;104.25;100.00;61586.06;5013677;28;20033;-78
2022/08/09 00:44:32;;;;;;;3.00;2.70;;;;;;;104.25;100.00;61586.06;5012247;28;20033;-77
2022/08/09 00:46:57;;;;;;;4.25;2.17;;;;;;;104.25;100.00;61586.06;5013235;28;20034;-78
2022/08/09 00:49:23;;;;;;;4.47;2.45;;;;;;;104.25;100.00;61586.06;5013100;28;20052;-78
2022/08/09 00:51:48;;;;;;;3.95;2.28;;;;;;;104.25;100.00;61586.06;5012528;28;20061;-78
2022/08/09 00:54:15;;;;;;;2.20;2.10;;;;;;;104.25;100.00;61586.06;5013288;28;20087;-77
2022/08/09 00:56:40;;;;;;;3.03;2.60;;;;;;;104.25;100.00;61586.06;5013088;28;20041;-77
2022/08/09 00:59:06;;;;;;;4.03;3.10;;;;;;;104.25;100.00;61586.06;5013536;28;20037;-78
2022/08/09 01:01:37;;;;;;;4.50;3.10;;;;;;;-144.47;100.00;61586.06;5012437;28;20100;-78
2022/08/09 01:04:11;;;;;;;2.97;2.67;;;;;;;104.25;100.00;61586.06;5012362;28;20038;-78
2022/08/09 01:06:47;;;;;;;3.22;3.03;;;;;;;104.25;100.00;61586.06;5008828;28;20049;-78
2022/08/09 01:09:40;;;;;;;2.97;2.78;;;;;;;-144.47;100.00;61586.06;4986641;28;20064;-77
2022/08/09 01:12:28;;;;;;;4.72;3.10;;;;;;;62.74;100.00;61586.06;5000255;28;20030;-79
2022/08/09 01:15:04;;;;;;;3.28;2.92;;;;;;;187.31;100.00;61586.06;5001898;28;20198;-78
2022/08/09 01:17:34;;;;;;;2.70;2.60;;;;;;;-144.47;100.00;61586.06;4997993;28;20481;-77
2022/08/09 01:20:08;;;;;;;3.55;2.40;;;;;;;-144.47;100.00;61586.06;5004239;28;20040;-79
2022/08/09 01:23:15;;;;;;;4.43;2.70;;;;;;;-144.47;100.00;61586.06;5001586;28;20387;-78
2022/08/09 01:26:20;;;;;;;4.85;2.58;;;;;;;-144.47;100.00;61586.06;4956143;28;20469;-79
2022/08/09 01:28:52;;;;;;;4.47;2.80;;;;;;;21.21;100.00;61586.06;5003748;28;20035;-77
2022/08/09 01:31:21;;;;;;;2.58;2.30;;;;;;;21.19;100.00;61586.06;4998242;28;20386;-80
2022/08/09 01:33:49;;;;;;;2.60;2.40;;;;;;;21.20;100.00;61586.06;5003908;28;20390;-79
2022/08/09 01:36:19;;;;;;;3.58;2.17;;;;;;;-144.47;100.00;61586.06;5000998;28;20040;-78
2022/08/09 01:38:48;;;;;;;5.10;2.35;;;;;;;104.25;100.00;61586.06;5004454;28;20385;-78
2022/08/09 01:41:22;;;;;;;3.42;2.35;;;;;;;21.21;100.00;61586.06;5003675;28;20482;-77
2022/08/09 01:43:50;;;;;;;4.57;2.75;;;;;;;21.11;100.00;104032.72;5005859;28;20395;-80
2022/08/09 01:46:19;;;;;;;2.80;2.60;;;;;;;20.91;100.00;61586.06;4999909;28;20109;-80
2022/08/09 01:48:47;;;;;;;6.15;2.80;;;;;;;-144.47;100.00;61586.06;5003714;28;20109;-79
2022/08/09 01:51:16;;;;;;;4.97;2.97;;;;;;;20.89;100.00;61586.06;4998842;28;20033;-77
2022/08/09 01:53:42;;;;;;;6.18;2.70;;;;;;;20.92;100.00;99901.78;5003691;28;20675;-79
2022/08/09 01:56:10;;;;;;;9.93;2.72;;;;;;;20.92;100.00;61586.06;4999659;28;20041;-79
2022/08/09 01:58:36;;;;;;;2.88;2.60;;;;;;;-144.47;100.00;61586.06;5002734;28;20033;-79
2022/08/09 02:01:03;;;;;;;3.22;2.90;;;;;;;-144.47;100.00;61586.06;4979444;28;20104;-80
2022/08/09 02:03:32;;;;;;;4.40;2.90;;;;;;;-144.47;100.00;61586.06;4979141;28;20430;-79
2022/08/09 02:06:01;;;;;;;3.10;2.90;;;;;;;-144.47;100.00;61586.06;5006601;28;20116;-79
2022/08/09 02:08:30;;;;;;;3.38;2.75;;;;;;;-144.47;100.00;61586.06;5009763;28;20570;-80
2022/08/09 02:10:57;;;;;;;3.25;2.60;;;;;;;-144.47;100.00;61586.06;5007726;28;20044;-79
2022/08/09 02:13:25;;;;;;;3.55;2.50;;;;;;;21.22;100.00;104042.75;5010672;28;20037;-79
2022/08/09 02:15:54;;;;;;;4.15;3.05;;;;;;;21.13;100.00;61586.06;5011835;28;20096;-80
2022/08/09 02:18:23;;;;;;;3.58;3.28;;;;;;;21.00;100.00;81784.69;5010897;28;20382;-80
2022/08/09 02:21:04;;;;;;;3.05;2.85;;;;;;;20.81;100.00;61586.06;5012149;28;20069;-79
2022/08/09 02:23:37;;;;;;;3.65;3.25;;;;;;;-144.47;100.00;61586.06;4989618;28;20383;-80
2022/08/09 02:26:05;;;;;;;3.17;2.88;;;;;;;-144.47;100.00;61586.06;5012413;28;20500;-79
2022/08/09 02:28:40;;;;;;;3.10;2.80;;;;;;;-144.47;100.00;61586.06;5010824;28;20637;-80
2022/08/09 02:31:34;;;;;;;4.15;2.67;;;;;;;-144.47;100.00;61586.06;5012142;28;20033;-80
2022/08/09 02:34:07;;;;;;;4.90;2.88;;;;;;;-144.47;100.00;61586.06;5006347;28;20057;-80
2022/08/09 02:36:38;;;;;;;3.35;3.10;;;;;;;-144.47;100.00;61586.06;5010432;28;20029;-79
2022/08/09 02:39:09;;;;;;;5.85;2.67;;;;;;;-144.47;100.00;61586.06;5012181;28;20439;-80
2022/08/09 02:41:34;;;;;;;3.55;2.90;;;;;;;187.31;100.00;61586.06;5011408;28;20057;-78
2022/08/09 02:44:05;;;;;;;3.35;2.95;;;;;;;-144.47;100.00;61586.06;5011698;28;20065;-80
2022/08/09 02:46:34;;;;;;;3.92;3.10;;;;;;;-144.47;100.00;61586.06;5010288;28;20978;-79
2022/08/09 02:49:04;;;;;;;8.02;3.38;;;;;;;20.41;100.00;61586.06;5011997;28;20022;-79
2022/08/09 02:51:33;;;;;;;3.53;3.20;;;;;;;-144.47;100.00;61586.06;5010650;28;20029;-80
2022/08/09 02:54:03;;;;;;;3.43;2.90;;;;;;;-144.47;100.00;61586.06;5011687;28;20038;-80
2022/08/09 02:56:30;;;;;;;6.93;3.42;;;;;;;-144.47;100.00;61586.06;5011504;28;20413;-79
2022/08/09 02:59:00;;;;;;;3.25;2.55;;;;;;;-144.47;100.00;61586.06;5006748;28;20030;-79
2022/08/09 03:01:27;;;;;;;3.80;3.25;;;;;;;-144.47;100.00;61586.06;4990261;28;20406;-78
2022/08/09 03:03:54;;;;;;;4.05;3.00;;;;;;;20.72;100.00;81712.38;4993719;28;20064;-80
2022/08/09 03:06:22;;;;;;;4.32;2.85;;;;;;;20.78;100.00;81720.50;5008253;28;20050;-79
2022/08/09 03:08:50;;;;;;;4.68;2.80;;;;;;;-144.47;100.00;61586.06;5002830;28;20046;-80
2022/08/09 03:11:18;;;;;;;3.95;3.22;;;;;;;20.84;100.00;99932.81;4983343;28;20430;-80
2022/08/09 03:13:46;;;;;;;2.97;2.78;;;;;;;20.89;100.00;104042.75;5001548;28;20034;-80
2022/08/09 03:16:13;;;;;;;5.13;2.70;;;;;;;-144.47;100.00;61586.06;4999036;28;20453;-80
2022/08/09 03:18:41;;;;;;;4.05;2.50;;;;;;;21.03;100.00;81753.09;5001382;28;20457;-79
2022/08/09 03:21:09;;;;;;;3.90;2.65;;;;;;;21.10;100.00;61586.06;5002507;28;20100;-79
2022/08/09 03:23:35;;;;;;;3.42;2.70;;;;;;;-144.47;100.00;61586.06;5000056;28;20377;-80
2022/08/09 03:26:02;;;;;;;4.50;3.33;;;;;;;21.14;100.00;61586.06;5001985;28;20034;-79
2022/08/09 03:28:29;;;;;;;5.63;3.95;;;;;;;-144.47;100.00;61586.06;4999041;28;20029;-80
2022/08/09 03:30:55;;;;;;;4.55;4.10;;;;;;;-144.47;100.00;61586.06;4999134;28;20375;-80
2022/08/09 03:33:23;;;;;;;6.18;4.60;;;;;;;20.99;100.00;81747.63;4985156;28;20402;-79
2022/08/09 03:35:50;;;;;;;5.15;4.28;;;;;;;-144.47;100.00;61586.06;5000989;28;20453;-80
2022/08/09 03:38:16;;;;;;;4.22;3.92;;;;;;;-144.47;100.00;61586.06;4999316;28;20387;-79
2022/08/09 03:40:42;;;;;;;3.95;3.65;;;;;;;-144.47;100.00;61586.06;5001673;28;20035;-80
2022/08/09 03:43:07;;;;;;;5.25;3.85;;;;;;;-144.47;100.00;61586.06;5002246;28;20033;-80
2022/08/09 03:45:35;;;;;;;3.60;3.30;;;;;;;-144.47;100.00;61586.06;5000172;28;20124;-79
2022/08/09 03:48:02;;;;;;;3.85;3.38;;;;;;;-144.47;100.00;61586.06;5002984;28;20068;-79
2022/08/09 03:50:30;;;;;;;4.38;3.40;;;;;;;-144.47;100.00;61586.06;4999732;28;20034;-80
2022/08/09 03:53:01;;;;;;;3.95;3.55;;;;;;;-144.47;100.00;61586.06;4996349;28;20500;-80
2022/08/09 03:55:26;;;;;;;5.95;4.05;;;;;;;-144.47;100.00;61586.06;4995777;28;20038;-80
2022/08/09 03:57:55;;;;;;;5.60;4.35;;;;;;;20.85;100.00;99529.63;5005995;28;20030;-80
2022/08/09 04:00:21;;;;;;;4.57;4.18;;;;;;;20.94;100.00;61586.06;5003683;28;20023;-79
2022/08/09 04:02:48;;;;;;;4.57;4.18;;;;;;;20.89;100.00;81734.06;5006190;28;20056;-80
2022/08/09 04:05:14;;;;;;;5.28;3.95;;;;;;;20.85;100.00;-20259.06;5003982;28;20375;-79
2022/08/09 04:07:40;;;;;;;4.43;4.03;;;;;;;20.85;100.00;81730.34;5004321;28;20450;-79
2022/08/09 04:10:07;;;;;;;3.90;3.60;;;;;;;20.78;100.00;61586.06;5005762;28;20048;-79
2022/08/09 04:12:41;;;;;;;4.25;3.60;;;;;;;20.69;100.00;81708.28;5005001;28;20404;-78
2022/08/09 04:15:08;;;;;;;4.55;4.15;;;;;;;20.66;100.00;81705.91;5004384;28;20040;-78
2022/08/09 04:17:33;;;;;;;4.95;4.00;;;;;;;20.60;100.00;81696.06;5005580;28;20057;-79
2022/08/09 04:19:59;;;;;;;4.20;3.80;;;;;;;-144.47;100.00;61586.06;5002777;28;20475;-80
2022/08/09 04:22:24;;;;;;;6.90;4.72;;;;;;;-144.47;100.00;61586.06;4988360;28;20038;-78
2022/08/09 04:24:50;;;;;;;7.57;4.38;;;;;;;-144.47;100.00;61586.06;5003054;28;20058;-79
2022/08/09 04:27:16;;;;;;;4.40;4.00;;;;;;;-144.47;100.00;61586.06;5002791;28;20690;-79
2022/08/09 04:29:41;;;;;;;6.00;4.57;;;;;;;-144.47;100.00;61586.06;5004127;28;20030;-79
2022/08/09 04:32:07;;;;;;;4.85;4.45;;;;;;;-144.47;100.00;61586.06;5004004;28;20026;-79
2022/08/09 04:34:33;;;;;;;5.70;5.05;;;;;;;20.65;100.00;81719.50;5002418;28;20125;-79
2022/08/09 04:36:59;;;;;;;5.85;5.07;;;;;;;-144.47;100.00;61586.06;5005830;28;20711;-78
2022/08/09 04:39:25;;;;;;;6.00;5.40;;;;;;;20.59;100.00;81695.06;4998288;28;20056;-78
2022/08/09 04:41:51;;;;;;;6.35;5.70;;;;;;;-144.47;100.00;61586.06;4998794;28;20022;-79
2022/08/09 04:44:17;;;;;;;7.45;5.72;;;;;;;20.60;100.00;81695.41;4986094;28;20188;-79
2022/08/09 04:46:43;;;;;;;6.80;5.47;;;;;;;-144.47;100.00;61586.06;5000622;28;20026;-79
2022/08/09 04:49:08;;;;;;;6.25;5.75;;;;;;;-144.47;100.00;61586.06;5001781;28;20037;-79
2022/08/09 04:51:34;;;;;;;9.65;6.20;;;;;;;-144.47;100.00;61586.06;5005548;28;20037;-79
2022/08/09 04:54:00;;;;;;;6.10;5.60;;;;;;;20.60;100.00;104042.75;5001174;28;20042;-79
2022/08/09 04:56:26;;;;;;;7.60;5.43;;;;;;;-144.47;100.00;61586.06;5004329;28;20034;-78
2022/08/09 04:58:51;;;;;;;5.60;5.10;;;;;;;21.26;100.00;61586.06;5001222;28;20033;-79
2022/08/09 05:01:17;;;;;;;5.93;5.15;;;;;;;-144.47;100.00;61586.06;4984041;28;20081;-79
2022/08/09 05:03:42;;;;;;;5.95;5.55;;;;;;;20.20;100.00;100004.56;5003564;28;20046;-79
2022/08/09 05:06:11;;;;;;;5.47;5.07;;;;;;;20.05;100.00;100007.31;5002917;28;20061;-79
2022/08/09 05:08:37;;;;;;;5.60;5.10;;;;;;;20.00;100.00;100015.94;4994359;28;20035;-79
2022/08/09 05:11:03;;;;;;;8.25;5.32;;;;;;;20.09;100.00;81626.88;4995267;28;20026;-79
2022/08/09 05:13:29;;;;;;;5.18;4.68;;;;;;;20.15;100.00;81634.97;4992926;28;20034;-79
2022/08/09 05:15:55;;;;;;;7.32;4.93;;;;;;;20.22;100.00;100023.94;4994120;28;20023;-79
2022/08/09 05:18:20;;;;;;;6.18;5.35;;;;;;;20.27;100.00;100015.63;4976426;28;20030;-79
2022/08/09 05:20:46;;;;;;;7.22;5.20;;;;;;;20.27;100.00;61586.06;4998590;28;20038;-79
2022/08/09 05:23:12;;;;;;;5.50;5.10;;;;;;;20.18;100.00;61586.06;4978140;28;20056;-79
2022/08/09 05:25:38;;;;;;;5.30;4.80;;;;;;;20.22;100.00;81644.47;4995936;28;20030;-79
2022/08/09 05:28:04;;;;;;;4.97;4.47;;;;;;;20.22;100.00;61586.06;4994846;28;20026;-79
2022/08/09 05:30:29;;;;;;;8.38;5.35;;;;;;;20.44;100.00;61586.06;4997665;28;20132;-79
2022/08/09 05:32:55;;;;;;;5.75;5.30;;;;;;;20.53;100.00;61586.06;4994727;28;20099;-79
2022/08/09 05:35:21;;;;;;;6.35;5.75;;;;;;;-144.47;100.00;61586.06;4995247;28;20042;-78
2022/08/09 05:37:47;;;;;;;7.07;5.75;;;;;;;-144.47;100.00;61586.06;4974769;28;20041;-78
2022/08/09 05:40:13;;;;;;;6.18;5.43;;;;;;;20.53;100.00;81685.91;4996461;28;20034;-78
2022/08/09 05:42:40;;;;;;;10.70;7.03;;;;;;;-144.47;100.00;61586.06;4994281;28;20390;-79
2022/08/09 05:45:06;;;;;;;8.25;7.47;;;;;;;-144.47;100.00;61586.06;4999773;28;20479;-79
2022/08/09 05:47:31;;;;;;;11.52;10.02;;;;;;;20.57;100.00;81692.00;4996753;28;20560;-78
2022/08/09 05:49:57;;;;;;;10.43;9.48;;;;;;;20.76;100.00;81717.09;4994950;28;20034;-79
2022/08/09 05:52:23;;;;;;;11.15;10.15;;;;;;;20.82;100.00;81725.59;4991845;28;20030;-79
2022/08/09 05:54:48;;;;;;;10.98;9.88;;;;;;;20.85;100.00;61586.06;4996968;28;20030;-79
2022/08/09 05:57:15;;;;;;;11.68;10.32;;;;;;;20.89;100.00;81734.75;4994022;28;20022;-79
2022/08/09 05:59:40;;;;;;;11.00;9.75;;;;;;;20.94;100.00;81741.53;4995317;28;20026;-78
2022/08/09 06:02:06;;;;;;;10.40;9.50;;;;;;;-144.47;100.00;61586.06;4997044;28;20093;-79
2022/08/09 06:04:32;;;;;;;11.57;9.73;;;;;;;20.97;100.00;81744.94;4992322;28;20035;-79
2022/08/09 06:06:57;;;;;;;11.73;10.10;;;;;;;21.01;100.00;81750.38;5000791;28;20063;-80
2022/08/09 06:09:23;;;;;;;9.43;8.50;;;;;;;21.02;100.00;81751.72;5000850;28;20084;-79
2022/08/09 06:11:49;;;;;;;9.05;8.25;;;;;;;-144.47;100.00;61586.06;5001750;28;20049;-77
2022/08/09 06:14:16;;;;;;;8.50;7.55;;;;;;;-144.47;100.00;61586.06;4999299;28;20065;-79
2022/08/09 06:16:42;;;;;;;8.75;7.47;;;;;;;21.09;100.00;61586.06;5000636;28;20516;-79
2022/08/09 06:19:08;;;;;;;8.52;7.53;;;;;;;21.22;100.00;61586.06;4998199;28;20030;-78
2022/08/09 06:21:33;;;;;;;10.07;7.82;;;;;;;22.56;100.00;61586.06;4983554;28;20097;-79
2022/08/09 06:23:59;;;;;;;9.85;7.35;;;;;;;21.36;100.00;61586.06;5001721;28;20038;-79
2022/08/09 06:26:25;;;;;;;8.60;7.57;;;;;;;-144.47;100.00;61586.06;5000275;28;20025;-78
2022/08/09 06:28:55;;;;;;;8.15;7.20;;;;;;;21.42;100.00;61586.06;5002639;28;20034;-79
2022/08/09 06:31:21;;;;;;;;;;;;;;;-144.47;100.00;61586.06;5002618;28;20029;-79
2022/08/09 06:33:47;;;;;;;8.88;6.85;;;;;;;21.49;100.00;61586.06;4998394;28;19918;-79
2022/08/09 06:36:13;;;;;;;8.50;5.95;;;;;;;-144.47;100.00;61586.06;4999683;28;20505;-79
2022/08/09 06:38:39;;;;;;;6.88;5.90;;;;;;;-144.47;100.00;61586.06;4997612;28;20062;-78
2022/08/09 06:41:05;;;;;;;9.43;5.70;;;;;;;21.74;100.00;61586.06;5001808;28;20065;-80
2022/08/09 06:43:31;;;;;;;5.97;5.57;;;;;;;-144.47;100.00;61586.06;4995739;28;20088;-78
2022/08/09 06:45:56;;;;;;;6.68;5.70;;;;;;;23.85;100.00;61586.06;5005831;28;20030;-78
2022/08/09 06:48:22;;;;;;;7.35;5.90;;;;;;;-144.47;100.00;61586.06;4999662;28;20068;-80
2022/08/09 06:50:48;;;;;;;6.68;6.07;;;;;;;22.56;100.00;61586.06;4982632;28;20057;-80
2022/08/09 06:53:13;;;;;;;7.82;5.32;;;;;;;-144.47;100.00;61586.06;4982457;28;20034;-80
2022/08/09 06:55:39;;;;;;;7.32;5.82;;;;;;;22.56;100.00;61586.06;5001544;28;20026;-79
2022/08/09 06:58:04;;;;;;;6.35;4.75;;;;;;;22.09;100.00;61586.06;5001522;28;20117;-79
2022/08/09 07:00:34;;;;;;;9.35;6.00;;;;;;;22.16;100.00;61586.06;4999259;28;20038;-79
2022/08/09 07:03:01;;;;;;;8.20;5.85;;;;;;;22.23;100.00;61586.06;5001476;28;20053;-79
2022/08/09 07:05:26;;;;;;;5.35;4.85;;;;;;;42.00;100.00;61586.06;5002333;28;20405;-79
2022/08/09 07:07:54;;;;;;;6.40;5.75;;;;;;;42.00;100.00;61586.06;4998498;28;20412;-79
2022/08/09 07:10:23;;;;;;;6.80;5.45;;;;;;;23.85;100.00;61586.06;5001193;28;20083;-77
2022/08/09 07:12:49;;;;;;;6.25;5.75;;;;;;;23.85;100.00;61586.06;4999525;28;20086;-79
2022/08/09 07:15:15;;;;;;;6.78;6.13;;;;;;;23.85;100.00;61586.06;4998254;28;20398;-79
2022/08/09 07:17:41;;;;;;;6.47;6.03;;;;;;;22.80;100.00;61586.06;5000356;28;20113;-78
2022/08/09 07:20:08;;;;;;;7.60;6.80;;;;;;;22.88;100.00;61586.06;5000502;28;20120;-78
2022/08/09 07:22:34;;;;;;;6.78;5.90;;;;;;;22.91;100.00;61586.06;5002107;28;20033;-79
2022/08/09 07:24:59;;;;;;;6.97;6.28;;;;;;;23.00;100.00;61586.06;5000292;28;20034;-80
2022/08/09 07:27:26;;;;;;;9.70;7.30;;;;;;;23.10;100.00;61586.06;4995207;28;20031;-79
2022/08/09 07:29:53;;;;;;;7.45;6.70;;;;;;;-144.47;100.00;61586.06;5000366;28;20129;-80
2022/08/09 07:32:19;;;;;;;7.70;7.00;;;;;;;23.18;100.00;61586.06;5005069;28;20144;-79
2022/08/09 07:34:44;;;;;;;7.22;6.63;;;;;;;23.28;100.00;61586.06;4998040;28;20443;-79
2022/08/09 07:37:10;;;;;;;8.93;7.13;;;;;;;26.45;100.00;61586.06;5008293;28;20077;-79
2022/08/09 07:39:36;;;;;;;7.30;6.35;;;;;;;62.74;100.00;61586.06;4986892;28;20041;-79
2022/08/09 07:42:01;;;;;;;7.03;6.38;;;;;;;62.74;100.00;61586.06;5006242;28;20038;-80
2022/08/09 07:44:27;;;;;;;7.03;6.38;;;;;;;26.45;100.00;61586.06;4999663;28;20030;-79
2022/08/09 07:46:53;;;;;;;8.45;6.30;;;;;;;26.45;100.00;61586.06;5006232;28;20060;-80
2022/08/09 07:49:18;;;;;;;7.22;6.57;;;;;;;23.84;100.00;61586.06;5004247;28;20125;-79
2022/08/09 07:51:44;;;;;;;6.60;5.47;;;;;;;42.00;100.00;61586.06;5005281;28;20038;-79
2022/08/09 07:54:09;;;;;;;7.40;5.45;;;;;;;31.63;100.00;61586.06;4984905;28;20041;-79
2022/08/09 07:56:36;;;;;;;6.88;6.22;;;;;;;42.00;100.00;61586.06;5006040;28;20033;-79
2022/08/09 07:59:02;;;;;;;7.20;6.40;;;;;;;31.63;100.00;61586.06;5001445;28;20109;-79
2022/08/09 08:01:28;;;;;;;8.18;6.43;;;;;;;25.15;100.00;61586.06;5006562;28;20094;-80
2022/08/09 08:03:53;;;;;;;6.93;6.32;;;;;;;25.15;100.00;61586.06;5002153;28;20041;-79
2022/08/09 08:06:19;;;;;;;7.85;7.25;;;;;;;25.15;100.00;61586.06;5006065;28;20093;-80
2022/08/09 08:08:44;;;;;;;6.88;6.28;;;;;;;187.31;100.00;61586.06;5000073;28;20050;-78
2022/08/09 08:11:10;;;;;;;7.45;6.72;;;;;;;-144.47;100.00;61586.06;5002474;28;20038;-79
2022/08/09 08:13:36;;;;;;;8.88;8.05;;;;;;;24.93;100.00;61586.06;5000235;28;20092;-79
2022/08/09 08:16:02;;;;;;;9.38;8.23;;;;;;;187.31;100.00;61586.06;5003560;28;20105;-80
2022/08/09 08:18:27;;;;;;;8.75;7.85;;;;;;;187.31;100.00;61586.06;5005338;28;20076;-79
2022/08/09 08:20:53;;;;;;;7.70;6.90;;;;;;;104.25;100.00;61586.06;5005615;28;20086;-79
2022/08/09 08:23:19;;;;;;;7.68;6.93;;;;;;;187.31;100.00;61586.06;5006353;28;20038;-79
2022/08/09 08:25:46;;;;;;;8.52;7.22;;;;;;;104.25;100.00;61586.06;5001729;28;20101;-80
2022/08/09 08:28:12;;;;;;;8.13;7.03;;;;;;;31.63;100.00;61586.06;4986743;28;20057;-79
2022/08/09 08:30:38;;;;;;;8.20;7.47;;;;;;;62.74;100.00;61586.06;4998650;28;20026;-79
2022/08/09 08:33:04;;;;;;;11.70;8.13;;;;;;;104.25;100.00;61586.06;5005351;28;20033;-79
2022/08/09 08:35:30;;;;;;;6.60;5.97;;;;;;;104.25;100.00;61586.06;5002054;28;20062;-80
2022/08/09 08:37:56;;;;;;;7.35;6.63;;;;;;;104.25;100.00;61586.06;4999129;28;20069;-79
2022/08/09 08:40:21;;;;;;;6.63;6.13;;;;;;;25.56;100.00;61586.06;5003400;28;20046;-80
2022/08/09 08:42:48;;;;;;;8.38;7.03;;;;;;;104.25;100.00;61586.06;5004068;28;20037;-80
2022/08/09 08:45:17;;;;;;;7.60;6.88;;;;;;;104.25;100.00;61586.06;5005117;28;20033;-81
2022/08/09 08:47:44;;;;;;;6.45;5.85;;;;;;;-144.47;100.00;61586.06;4986049;28;20482;-80
2022/08/09 08:50:14;;;;;;;7.68;6.82;;;;;;;-144.47;100.00;61586.06;5001009;28;20034;-79
2022/08/09 08:52:40;;;;;;;7.78;7.03;;;;;;;-144.47;100.00;61586.06;5006579;28;20487;-78
2022/08/09 08:55:07;;;;;;;6.50;5.78;;;;;;;104.25;100.00;61586.06;5004736;28;20036;-83
2022/08/09 08:57:33;;;;;;;9.55;8.65;;;;;;;42.00;100.00;61586.06;5003051;28;20030;-83
2022/08/09 08:59:59;;;;;;;7.85;7.05;;;;;;;31.63;100.00;61586.06;5005212;28;20034;-81
2022/08/09 09:02:27;;;;;;;8.10;7.35;;;;;;;62.74;100.00;61586.06;5008106;28;20030;-86
2022/08/09 09:04:56;;;;;;;8.93;7.45;;;;;;;26.23;100.00;93103.69;5004342;28;20100;-79
2022/08/09 09:07:24;;;;;;;9.40;8.50;;;;;;;-144.47;100.00;61586.06;5007000;28;20042;-79
2022/08/09 09:09:51;;;;;;;9.52;7.20;;;;;;;26.23;100.00;82451.94;5003450;28;20054;-78
2022/08/09 09:12:20;;;;;;;9.13;7.25;;;;;;;26.35;100.00;82468.66;5003534;28;20088;-79
2022/08/09 09:14:47;;;;;;;7.85;6.85;;;;;;;26.38;100.00;82472.75;5003431;28;20046;-77
2022/08/09 09:17:13;;;;;;;8.45;7.72;;;;;;;26.42;100.00;82478.19;5005590;28;20113;-79
2022/08/09 09:19:39;;;;;;;10.23;8.20;;;;;;;26.45;100.00;82655.81;5002475;28;20038;-79
2022/08/09 09:22:06;;;;;;;14.35;7.55;;;;;;;-144.47;100.00;61586.06;5003713;28;20390;-80
2022/08/09 09:24:38;;;;;;;7.93;7.22;;;;;;;-144.47;100.00;61586.06;5001562;28;20792;-81
2022/08/09 09:27:05;;;;;;;8.32;7.63;;;;;;;-144.47;100.00;61586.06;5001115;28;20025;-81
2022/08/09 09:29:32;;;;;;;7.97;6.93;;;;;;;-144.47;100.00;61586.06;5000404;28;20449;-79
2022/08/09 09:31:59;;;;;;;7.57;6.93;;;;;;;26.54;100.00;61586.06;5004387;28;20363;-81
2022/08/09 09:34:24;;;;;;;7.82;7.07;;;;;;;26.65;100.00;61586.06;5005308;28;20026;-81
2022/08/09 09:36:50;;;;;;;7.15;6.45;;;;;;;-144.47;100.00;61586.06;5006346;28;20049;-81
2022/08/09 09:39:17;;;;;;;9.75;8.75;;;;;;;-144.47;100.00;61586.06;5001908;28;20556;-81
2022/08/09 09:41:43;;;;;;;11.95;8.48;;;;;;;26.68;100.00;61586.06;5001966;28;20400;-81
2022/08/09 09:44:09;;;;;;;8.35;7.65;;;;;;;-144.47;100.00;61586.06;5004394;28;20049;-80
2022/08/09 09:46:39;;;;;;;7.53;6.93;;;;;;;-144.47;100.00;61586.06;4985911;28;20030;-79
2022/08/09 09:49:09;;;;;;;7.72;7.03;;;;;;;27.09;100.00;61586.06;5005334;28;20374;-80
2022/08/09 09:51:38;;;;;;;7.50;6.57;;;;;;;-144.47;100.00;61586.06;5003556;28;20944;-78
2022/08/09 09:54:17;;;;;;;7.65;7.05;;;;;;;26.84;100.00;61586.06;4979535;28;20052;-79
2022/08/09 09:56:45;;;;;;;8.63;7.20;;;;;;;-144.47;100.00;61586.06;5000096;28;20069;-81
2022/08/09 09:59:13;;;;;;;9.45;6.40;;;;;;;-144.47;100.00;61586.06;5000347;28;20390;-78
2022/08/09 10:01:41;;;;;;;9.60;7.18;;;;;;;26.96;100.00;61586.06;5001233;28;20490;-81
2022/08/09 10:04:17;;;;;;;7.85;7.13;;;;;;;-144.47;100.00;61586.06;5003982;28;20617;-81
2022/08/09 10:06:46;;;;;;;7.65;6.90;;;;;;;-144.47;100.00;61586.06;4997873;28;20398;-81
2022/08/09 10:09:13;;;;;;;8.32;6.47;;;;;;;-144.47;100.00;61586.06;5003259;28;20335;-81
2022/08/09 10:11:39;;;;;;;7.90;6.93;;;;;;;-144.47;100.00;61586.06;5002742;28;20370;-81
2022/08/09 10:14:05;;;;;;;6.80;6.30;;;;;;;27.20;100.00;61586.06;5000232;28;20031;-79
2022/08/09 10:16:32;;;;;;;10.35;7.15;;;;;;;27.23;100.00;61586.06;4999776;28;20541;-81
2022/08/09 10:19:07;;;;;;;7.80;7.00;;;;;;;27.23;100.00;61586.06;5002644;28;20390;-81
2022/08/09 10:21:33;;;;;;;10.43;7.80;;;;;;;27.21;100.00;61586.06;5000956;28;20042;-81
2022/08/09 10:24:01;;;;;;;8.15;7.45;;;;;;;27.18;100.00;61586.06;5003782;28;20433;-81
2022/08/09 10:26:28;;;;;;;7.78;7.07;;;;;;;27.23;100.00;61586.06;4981574;28;20050;-81
2022/08/09 10:28:54;;;;;;;8.05;7.28;;;;;;;-144.47;100.00;61586.06;5002489;28;20040;-79
2022/08/09 10:31:20;;;;;;;7.82;7.13;;;;;;;27.42;100.00;61586.06;5003721;28;20711;-81
2022/08/09 10:33:46;;;;;;;8.75;7.00;;;;;;;27.46;100.00;61586.06;5001463;28;20105;-80
2022/08/09 10:36:13;;;;;;;7.82;7.07;;;;;;;27.48;100.00;82619.97;5003197;28;20030;-80
2022/08/09 10:38:42;;;;;;;7.50;6.75;;;;;;;27.52;100.00;61586.06;5000365;28;20089;-81
2022/08/09 10:41:08;;;;;;;9.23;7.53;;;;;;;27.74;100.00;61586.06;5001376;28;20429;-81
2022/08/09 10:43:35;;;;;;;7.72;6.88;;;;;;;27.74;100.00;61586.06;4997788;28;20394;-81
2022/08/09 10:46:32;;;;;;;8.57;6.63;;;;;;;29.04;100.00;61586.06;5004338;28;20030;-80
2022/08/09 10:49:32;;;;;;;6.90;6.28;;;;;;;29.04;100.00;61586.06;4995030;28;20038;-81
2022/08/09 10:52:12;;;;;;;8.80;6.68;;;;;;;29.04;100.00;61586.06;4946751;28;20045;-80
2022/08/09 10:54:38;;;;;;;6.50;6.00;;;;;;;29.04;100.00;61586.06;5001340;28;20432;-79
2022/08/09 10:57:12;;;;;;;8.00;7.22;;;;;;;29.04;100.00;61586.06;4997226;28;20026;-81
2022/08/09 10:59:38;;;;;;;7.60;6.72;;;;;;;29.04;100.00;61586.06;5005373;28;20451;-81
2022/08/09 11:02:13;;;;;;;7.50;6.90;;;;;;;28.10;100.00;61586.06;5001752;28;20034;-81
2022/08/09 11:04:39;;;;;;;6.78;6.00;;;;;;;28.06;100.00;61586.06;5002793;28;20367;-80
2022/08/09 11:07:05;;;;;;;8.45;6.53;;;;;;;29.04;100.00;61586.06;5001024;28;20095;-81
2022/08/09 11:09:36;;;;;;;6.63;6.03;;;;;;;29.04;100.00;61586.06;5001847;28;20120;-80
2022/08/09 11:12:11;;;;;;;6.80;6.30;;;;;;;-144.47;100.00;61586.06;5001317;28;20431;-81
2022/08/09 11:14:40;;;;;;;6.90;6.25;;;;;;;29.04;100.00;61586.06;4996717;28;20077;-81
2022/08/09 11:17:12;;;;;;;6.90;5.70;;;;;;;29.04;100.00;61586.06;5002602;28;20124;-81
2022/08/09 11:19:56;;;;;;;6.95;6.25;;;;;;;29.04;100.00;61586.06;4995903;28;20026;-80
2022/08/09 11:22:44;;;;;;;6.95;6.18;;;;;;;104.25;100.00;61586.06;5003091;28;20421;-81